Time;durP1;ratioP1;P1;durP2;ratioP2;P2;SDS_P1;SDS_P2;PMS_P1;PMS_P2;Temp;Humidity;BMP_temperature;BMP_pressure;BME280_temperature;BME280_humidity;BME280_pressure;Samples;Min_cycle;Max_cycle;Signal;HPM_P1;HPM_P2
2021/10/30 00:00:18;;;;;;;0.50;0.33;;;;;;;;;;5040436;28;20143;-88
2021/10/30 00:02:44;;;;;;;0.10;0.10;;;;;;;;;;5042526;28;20301;-89
2021/10/30 00:05:12;;;;;;;0.20;0.20;;;;;;;;;;5042507;28;20025;-89
2021/10/30 00:07:39;;;;;;;0.20;0.20;;;;;;;;;;5043955;28;20054;-91
2021/10/30 00:10:05;;;;;;;;;;;;;;;;;;5043161;28;20032;-89
2021/10/30 00:12:31;;;;;;;0.00;0.00;;;;;;;;;;5040494;28;19936;-87
2021/10/30 00:14:57;;;;;;;0.93;0.63;;;;;;;;;;5040974;28;20037;-86
2021/10/30 00:17:23;;;;;;;0.10;0.10;;;;;;;;;;5040375;28;20033;-86
2021/10/30 00:19:49;;;;;;;0.03;0.03;;;;;;;;;;5041436;28;20286;-87
2021/10/30 00:22:16;;;;;;;0.00;0.00;;;;;;;;;;5043608;28;20118;-87
2021/10/30 00:24:42;;;;;;;0.50;0.35;;;;;;;;;;5041124;28;20029;-86
2021/10/30 00:27:10;;;;;;;0.45;0.35;;;;;;;;;;5039538;28;20036;-87
2021/10/30 00:29:40;;;;;;;0.10;0.10;;;;;;;;;;5040890;28;20029;-87
2021/10/30 00:32:06;;;;;;;0.08;0.08;;;;;;;;;;5041729;28;20037;-87
2021/10/30 00:34:32;;;;;;;;;;;;;;;;;;5059607;28;20024;-86
2021/10/30 00:36:59;;;;;;;0.20;0.20;;;;;;;;;;5042594;28;21445;-87
2021/10/30 00:39:25;;;;;;;0.10;0.10;;;;;;;;;;5039121;28;20083;-86
2021/10/30 00:41:52;;;;;;;0.82;0.47;;;;;;;;;;5040684;28;20058;-87
2021/10/30 00:44:19;;;;;;;0.10;0.10;;;;;;;;;;5039633;28;20118;-87
2021/10/30 00:46:46;;;;;;;0.50;0.50;;;;;;;;;;5041078;28;20053;-86
2021/10/30 00:49:13;;;;;;;0.10;0.10;;;;;;;;;;5041288;28;20029;-87
2021/10/30 00:51:40;;;;;;;7.03;0.65;;;;;;;;;;5039617;28;20041;-87
2021/10/30 00:54:07;;;;;;;0.22;0.22;;;;;;;;;;5038673;28;20037;-87
2021/10/30 00:56:33;;;;;;;0.10;0.10;;;;;;;;;;5038506;28;20503;-86
2021/10/30 00:59:01;;;;;;;0.20;0.20;;;;;;;;;;5040917;28;20032;-88
2021/10/30 01:01:27;;;;;;;0.35;0.35;;;;;;;;;;5042479;28;20032;-88
2021/10/30 01:03:53;;;;;;;1.40;0.40;;;;;;;;;;5041391;28;20029;-88
2021/10/30 01:06:20;;;;;;;0.22;0.20;;;;;;;;;;5041670;28;20279;-87
2021/10/30 01:08:46;;;;;;;0.10;0.10;;;;;;;;;;5040240;28;20051;-88
2021/10/30 01:11:15;;;;;;;0.10;0.10;;;;;;;;;;5041020;28;20037;-88
2021/10/30 01:13:41;;;;;;;0.90;0.77;;;;;;;;;;5055979;28;20110;-88
2021/10/30 01:16:08;;;;;;;0.13;0.13;;;;;;;;;;5042307;28;20033;-89
2021/10/30 01:18:34;;;;;;;0.03;0.03;;;;;;;;;;5043702;28;20508;-89
2021/10/30 01:21:00;;;;;;;0.30;0.22;;;;;;;;;;5044291;28;20412;-90
2021/10/30 01:23:26;;;;;;;0.33;0.33;;;;;;;;;;5025837;28;20135;-89
2021/10/30 01:25:57;;;;;;;0.33;0.23;;;;;;;;;;5058122;28;20363;-90
2021/10/30 01:28:23;;;;;;;1.40;0.98;;;;;;;;;;5043001;28;20041;-85
2021/10/30 01:30:49;;;;;;;0.50;0.50;;;;;;;;;;5039705;28;20068;-87
2021/10/30 01:33:15;;;;;;;0.25;0.25;;;;;;;;;;5040803;28;20466;-86
2021/10/30 01:35:42;;;;;;;0.45;0.45;;;;;;;;;;5039442;28;20036;-86
2021/10/30 01:38:09;;;;;;;0.27;0.27;;;;;;;;;;5040621;28;20032;-86
2021/10/30 01:40:47;;;;;;;0.75;0.75;;;;;;;;;;5038698;28;20279;-86
2021/10/30 01:43:14;;;;;;;0.75;0.52;;;;;;;;;;5040724;28;20751;-86
2021/10/30 01:45:41;;;;;;;0.43;0.30;;;;;;;;;;5040134;28;20057;-86
2021/10/30 01:48:07;;;;;;;0.68;0.40;;;;;;;;;;5040915;28;20044;-85
2021/10/30 01:50:33;;;;;;;0.20;0.20;;;;;;;;;;5040227;28;20045;-85
2021/10/30 01:53:01;;;;;;;0.13;0.13;;;;;;;;;;5040592;28;20279;-85
2021/10/30 01:55:27;;;;;;;1.08;0.43;;;;;;;;;;5039422;28;20040;-85
2021/10/30 01:57:53;;;;;;;;;;;;;;;;;;5040448;28;20055;-85
2021/10/30 02:00:19;;;;;;;0.10;0.10;;;;;;;;;;5038256;28;19912;-86
2021/10/30 02:02:46;;;;;;;0.10;0.10;;;;;;;;;;5038378;28;20420;-84
2021/10/30 02:05:12;;;;;;;0.30;0.30;;;;;;;;;;5041215;28;20102;-84
2021/10/30 02:07:38;;;;;;;0.43;0.43;;;;;;;;;;5040757;28;20029;-84
2021/10/30 02:10:05;;;;;;;0.80;0.60;;;;;;;;;;5040855;28;20060;-86
2021/10/30 02:12:31;;;;;;;;;;;;;;;;;;5039029;28;20036;-86
2021/10/30 02:14:57;;;;;;;1.10;0.60;;;;;;;;;;5039839;28;19917;-86
2021/10/30 02:17:23;;;;;;;0.10;0.10;;;;;;;;;;5039944;28;20060;-86
2021/10/30 02:19:49;;;;;;;0.17;0.17;;;;;;;;;;5040305;28;20037;-86
2021/10/30 02:22:15;;;;;;;0.83;0.50;;;;;;;;;;5040529;28;20067;-85
2021/10/30 02:24:41;;;;;;;0.50;0.50;;;;;;;;;;5043810;28;20306;-85
2021/10/30 02:27:08;;;;;;;0.32;0.32;;;;;;;;;;5043656;28;20129;-85
2021/10/30 02:29:34;;;;;;;0.52;0.52;;;;;;;;;;5043668;28;20028;-86
2021/10/30 02:32:01;;;;;;;0.70;0.63;;;;;;;;;;5044220;28;20476;-86
2021/10/30 02:34:28;;;;;;;0.28;0.28;;;;;;;;;;5059377;28;20036;-86
2021/10/30 02:36:54;;;;;;;0.10;0.10;;;;;;;;;;5041801;28;20089;-85
2021/10/30 02:39:20;;;;;;;0.30;0.30;;;;;;;;;;5041597;28;20398;-86
2021/10/30 02:41:46;;;;;;;0.10;0.10;;;;;;;;;;5041641;28;20094;-86
2021/10/30 02:44:12;;;;;;;0.20;0.20;;;;;;;;;;5041222;28;20474;-85
2021/10/30 02:46:38;;;;;;;0.20;0.20;;;;;;;;;;5042842;28;20128;-86
2021/10/30 02:49:05;;;;;;;0.40;0.40;;;;;;;;;;5043236;28;20045;-85
2021/10/30 02:51:31;;;;;;;1.17;0.75;;;;;;;;;;5041498;28;20040;-86
2021/10/30 02:53:57;;;;;;;0.40;0.32;;;;;;;;;;5041301;28;20446;-86
2021/10/30 02:56:23;;;;;;;0.30;0.30;;;;;;;;;;5042684;28;20037;-86
2021/10/30 02:58:49;;;;;;;0.55;0.20;;;;;;;;;;5042732;28;20271;-86
2021/10/30 03:01:15;;;;;;;2.25;0.63;;;;;;;;;;5042751;28;20110;-85
2021/10/30 03:03:41;;;;;;;0.20;0.20;;;;;;;;;;5042501;28;20508;-86
2021/10/30 03:06:08;;;;;;;0.40;0.40;;;;;;;;;;5043468;28;20287;-86
2021/10/30 03:08:34;;;;;;;0.17;0.17;;;;;;;;;;5035816;28;20025;-86
2021/10/30 03:11:01;;;;;;;0.55;0.47;;;;;;;;;;5045178;28;20126;-86
2021/10/30 03:13:27;;;;;;;0.50;0.50;;;;;;;;;;5044882;28;20024;-85
2021/10/30 03:15:54;;;;;;;0.15;0.15;;;;;;;;;;5041153;28;20049;-85
2021/10/30 03:18:20;;;;;;;1.08;0.80;;;;;;;;;;5042299;28;20040;-86
2021/10/30 03:20:46;;;;;;;0.33;0.20;;;;;;;;;;5041569;28;20024;-87
2021/10/30 03:23:12;;;;;;;0.43;0.40;;;;;;;;;;5041730;28;20135;-86
2021/10/30 03:25:38;;;;;;;0.40;0.40;;;;;;;;;;5035947;28;20826;-87
2021/10/30 03:28:05;;;;;;;0.30;0.30;;;;;;;;;;5043032;28;20572;-88
2021/10/30 03:30:31;;;;;;;0.73;0.73;;;;;;;;;;5042934;28;20032;-87
2021/10/30 03:32:57;;;;;;;0.37;0.37;;;;;;;;;;5042162;28;20388;-87
2021/10/30 03:35:23;;;;;;;0.20;0.20;;;;;;;;;;5042331;28;20027;-87
2021/10/30 03:37:49;;;;;;;0.28;0.22;;;;;;;;;;5042366;28;20060;-87
2021/10/30 03:40:15;;;;;;;0.20;0.20;;;;;;;;;;5042712;28;20044;-87
2021/10/30 03:42:41;;;;;;;1.55;0.85;;;;;;;;;;5041250;28;20283;-86
2021/10/30 03:45:08;;;;;;;0.30;0.30;;;;;;;;;;5042680;28;20063;-86
2021/10/30 03:47:34;;;;;;;;;;;;;;;;;;5042679;28;20120;-87
2021/10/30 03:50:00;;;;;;;0.20;0.20;;;;;;;;;;5042620;28;19987;-87
2021/10/30 03:52:26;;;;;;;0.27;0.27;;;;;;;;;;5043250;28;20794;-87
2021/10/30 03:54:53;;;;;;;0.37;0.37;;;;;;;;;;5042089;28;20294;-86
2021/10/30 03:57:19;;;;;;;1.85;0.52;;;;;;;;;;5041755;28;20192;-87
2021/10/30 03:59:45;;;;;;;0.20;0.20;;;;;;;;;;5042157;28;20120;-87
2021/10/30 04:02:12;;;;;;;0.33;0.33;;;;;;;;;;5041352;28;20106;-85
2021/10/30 04:04:38;;;;;;;0.10;0.10;;;;;;;;;;5041940;28;20280;-85
2021/10/30 04:07:04;;;;;;;0.22;0.17;;;;;;;;;;5041725;28;20268;-85
2021/10/30 04:09:30;;;;;;;0.30;0.30;;;;;;;;;;5041888;28;20175;-86
2021/10/30 04:11:56;;;;;;;0.52;0.52;;;;;;;;;;5043168;28;20051;-87
2021/10/30 04:14:23;;;;;;;0.65;0.60;;;;;;;;;;5041901;28;20051;-86
2021/10/30 04:16:49;;;;;;;0.68;0.68;;;;;;;;;;5041379;28;21106;-86
2021/10/30 04:19:15;;;;;;;0.50;0.50;;;;;;;;;;5041955;28;20033;-86
2021/10/30 04:21:42;;;;;;;0.30;0.30;;;;;;;;;;5041830;28;20060;-86
2021/10/30 04:24:09;;;;;;;0.35;0.22;;;;;;;;;;5041055;28;20102;-86
2021/10/30 04:26:35;;;;;;;0.65;0.55;;;;;;;;;;5041107;28;20127;-86
2021/10/30 04:29:01;;;;;;;0.13;0.13;;;;;;;;;;5041254;28;20060;-86
2021/10/30 04:31:29;;;;;;;0.10;0.10;;;;;;;;;;5042205;28;20037;-85
2021/10/30 04:33:59;;;;;;;3.83;0.70;;;;;;;;;;5040663;28;20025;-85
2021/10/30 04:36:28;;;;;;;0.03;0.03;;;;;;;;;;5040463;28;20029;-85
2021/10/30 04:38:54;;;;;;;0.17;0.17;;;;;;;;;;5041251;28;20040;-86
2021/10/30 04:41:21;;;;;;;0.67;0.53;;;;;;;;;;5040435;28;20102;-85
2021/10/30 04:43:48;;;;;;;1.30;1.20;;;;;;;;;;5041516;28;20025;-85
2021/10/30 04:46:15;;;;;;;0.30;0.30;;;;;;;;;;5040122;28;20570;-85
2021/10/30 04:48:41;;;;;;;0.22;0.22;;;;;;;;;;5038365;28;20082;-86
2021/10/30 04:51:07;;;;;;;0.50;0.50;;;;;;;;;;5038328;28;20126;-87
2021/10/30 04:53:38;;;;;;;0.88;0.80;;;;;;;;;;5041668;28;20040;-85
2021/10/30 04:56:04;;;;;;;1.17;0.88;;;;;;;;;;5038805;28;20029;-84
2021/10/30 04:58:31;;;;;;;0.30;0.30;;;;;;;;;;5040860;28;20091;-84
2021/10/30 05:00:57;;;;;;;0.20;0.20;;;;;;;;;;5041475;28;20037;-85
2021/10/30 05:03:23;;;;;;;;;;;;;;;;;;5056421;28;20591;-85
2021/10/30 05:05:50;;;;;;;0.10;0.10;;;;;;;;;;5041504;28;19916;-85
2021/10/30 05:08:16;;;;;;;0.88;0.88;;;;;;;;;;5040649;28;20567;-87
2021/10/30 05:10:42;;;;;;;1.20;0.73;;;;;;;;;;5040752;28;20043;-87
2021/10/30 05:13:08;;;;;;;0.17;0.17;;;;;;;;;;5041563;28;20279;-87
2021/10/30 05:15:34;;;;;;;0.40;0.40;;;;;;;;;;5041524;28;20441;-86
2021/10/30 05:18:00;;;;;;;0.30;0.30;;;;;;;;;;5041129;28;20055;-87
2021/10/30 05:20:27;;;;;;;0.10;0.10;;;;;;;;;;5040799;28;20317;-87
2021/10/30 05:22:53;;;;;;;2.30;0.63;;;;;;;;;;5041691;28;20029;-86
2021/10/30 05:25:19;;;;;;;0.33;0.33;;;;;;;;;;5041281;28;20503;-86
2021/10/30 05:27:45;;;;;;;0.95;0.47;;;;;;;;;;5041859;28;20025;-86
2021/10/30 05:30:11;;;;;;;0.50;0.27;;;;;;;;;;5021574;28;20033;-87
2021/10/30 05:32:37;;;;;;;0.40;0.40;;;;;;;;;;5040507;28;20040;-86
2021/10/30 05:35:03;;;;;;;0.10;0.10;;;;;;;;;;5041896;28;20079;-85
2021/10/30 05:37:29;;;;;;;0.08;0.08;;;;;;;;;;5041653;28;20033;-85
2021/10/30 05:39:55;;;;;;;0.63;0.63;;;;;;;;;;5056754;28;20770;-84
2021/10/30 05:42:21;;;;;;;0.43;0.43;;;;;;;;;;5040672;28;20362;-84
2021/10/30 05:44:48;;;;;;;2.10;0.43;;;;;;;;;;5042162;28;20298;-83
2021/10/30 05:47:14;;;;;;;0.45;0.43;;;;;;;;;;5040317;28;20118;-83
2021/10/30 05:49:41;;;;;;;0.45;0.38;;;;;;;;;;5039667;28;20025;-83
2021/10/30 05:52:09;;;;;;;0.10;0.10;;;;;;;;;;5040786;28;20044;-84
2021/10/30 05:54:35;;;;;;;2.38;1.88;;;;;;;;;;5038895;28;20083;-83
2021/10/30 05:57:01;;;;;;;4.72;4.30;;;;;;;;;;5039543;28;20503;-83
2021/10/30 05:59:28;;;;;;;3.08;2.78;;;;;;;;;;5044160;28;20106;-83
2021/10/30 06:01:54;;;;;;;3.90;3.40;;;;;;;;;;5046178;28;20032;-84
2021/10/30 06:04:20;;;;;;;8.07;2.78;;;;;;;;;;5046390;28;20033;-85
2021/10/30 06:06:46;;;;;;;0.77;0.77;;;;;;;;;;5039186;28;20033;-85
2021/10/30 06:09:12;;;;;;;1.33;1.23;;;;;;;;;;5045280;28;20103;-85
2021/10/30 06:11:38;;;;;;;1.63;1.52;;;;;;;;;;5043133;28;20382;-85
2021/10/30 06:14:06;;;;;;;0.93;0.93;;;;;;;;;;5043484;28;20099;-84
2021/10/30 06:16:32;;;;;;;0.57;0.57;;;;;;;;;;5046275;28;20032;-84
2021/10/30 06:18:58;;;;;;;1.52;1.10;;;;;;;;;;5045661;28;20032;-82
2021/10/30 06:21:26;;;;;;;1.83;1.00;;;;;;;;;;5044398;28;20032;-84
2021/10/30 06:23:54;;;;;;;1.85;0.70;;;;;;;;;;5042450;28;20918;-87
2021/10/30 06:26:20;;;;;;;3.42;1.40;;;;;;;;;;5044378;28;20143;-85
2021/10/30 06:28:46;;;;;;;1.92;1.80;;;;;;;;;;5043724;28;20036;-85
2021/10/30 06:31:12;;;;;;;6.43;4.82;;;;;;;;;;5043584;28;20135;-86
2021/10/30 06:33:39;;;;;;;9.40;6.68;;;;;;;;;;5038424;28;20030;-82
2021/10/30 06:36:05;;;;;;;2.28;2.08;;;;;;;;;;5041948;28;20043;-83
2021/10/30 06:38:31;;;;;;;1.42;1.35;;;;;;;;;;5052457;28;20103;-82
2021/10/30 06:40:59;;;;;;;3.23;2.03;;;;;;;;;;5057863;28;20587;-81
2021/10/30 06:43:25;;;;;;;1.30;1.20;;;;;;;;;;5060197;28;20818;-80
2021/10/30 06:45:51;;;;;;;0.98;0.70;;;;;;;;;;5043600;28;20053;-81
2021/10/30 06:48:17;;;;;;;0.75;0.70;;;;;;;;;;5042876;28;20028;-84
2021/10/30 06:50:43;;;;;;;0.53;0.53;;;;;;;;;;5042754;28;20518;-85
2021/10/30 06:53:09;;;;;;;0.43;0.43;;;;;;;;;;5042995;28;20091;-81
2021/10/30 06:55:36;;;;;;;0.20;0.20;;;;;;;;;;5044080;28;20283;-84
2021/10/30 06:58:02;;;;;;;2.08;1.13;;;;;;;;;;5045457;28;20057;-86
2021/10/30 07:00:28;;;;;;;2.27;1.80;;;;;;;;;;5044360;28;20032;-84
2021/10/30 07:02:54;;;;;;;8.40;0.90;;;;;;;;;;5043332;28;20348;-84
2021/10/30 07:05:21;;;;;;;0.38;0.38;;;;;;;;;;5044529;28;20036;-87
2021/10/30 07:07:47;;;;;;;0.30;0.30;;;;;;;;;;5041907;28;20465;-87
2021/10/30 07:10:13;;;;;;;0.77;0.77;;;;;;;;;;5044805;28;20037;-87
2021/10/30 07:12:39;;;;;;;0.90;0.90;;;;;;;;;;5044691;28;20408;-87
2021/10/30 07:15:09;;;;;;;1.73;0.22;;;;;;;;;;5048420;28;20786;-87
2021/10/30 07:17:35;;;;;;;0.10;0.10;;;;;;;;;;5069081;28;20519;-86
2021/10/30 07:20:02;;;;;;;0.40;0.20;;;;;;;;;;5043629;28;20048;-87
2021/10/30 07:22:28;;;;;;;0.10;0.10;;;;;;;;;;5062967;28;20320;-86
2021/10/30 07:24:54;;;;;;;0.90;0.60;;;;;;;;;;5071228;28;20736;-86
2021/10/30 07:27:20;;;;;;;0.07;0.07;;;;;;;;;;5058879;28;20391;-86
2021/10/30 07:29:48;;;;;;;0.55;0.55;;;;;;;;;;5057164;28;20033;-86
2021/10/30 07:32:14;;;;;;;4.68;0.73;;;;;;;;;;5053447;28;20032;-86
2021/10/30 07:34:40;;;;;;;0.50;0.50;;;;;;;;;;5060680;28;20028;-86
2021/10/30 07:37:06;;;;;;;0.68;0.40;;;;;;;;;;5061073;28;20063;-85
2021/10/30 07:39:34;;;;;;;0.10;0.10;;;;;;;;;;5055261;28;20036;-87
2021/10/30 07:42:01;;;;;;;1.35;1.25;;;;;;;;;;5075170;28;20033;-86
2021/10/30 07:44:27;;;;;;;0.40;0.40;;;;;;;;;;5075608;28;20115;-86
2021/10/30 07:46:53;;;;;;;0.20;0.20;;;;;;;;;;5075778;28;20052;-87
2021/10/30 07:49:19;;;;;;;0.25;0.25;;;;;;;;;;5062302;28;20056;-86
2021/10/30 07:51:45;;;;;;;0.00;0.00;;;;;;;;;;5070908;28;20064;-88
2021/10/30 07:54:11;;;;;;;0.50;0.50;;;;;;;;;;5028230;28;20626;-87
2021/10/30 07:56:37;;;;;;;0.20;0.20;;;;;;;;;;5059857;28;20032;-87
2021/10/30 07:59:03;;;;;;;0.40;0.40;;;;;;;;;;5059366;28;20405;-88
2021/10/30 08:01:29;;;;;;;1.88;1.10;;;;;;;;;;5054477;28;20128;-86
2021/10/30 08:03:55;;;;;;;0.88;0.85;;;;;;;;;;5046903;28;20020;-85
2021/10/30 08:06:21;;;;;;;0.20;0.20;;;;;;;;;;5047984;28;20033;-85
2021/10/30 08:08:47;;;;;;;0.22;0.22;;;;;;;;;;5044140;28;20100;-85
2021/10/30 08:11:14;;;;;;;0.43;0.43;;;;;;;;;;5044312;28;20045;-85
2021/10/30 08:13:40;;;;;;;0.30;0.30;;;;;;;;;;5045040;28;20052;-85
2021/10/30 08:16:06;;;;;;;0.45;0.45;;;;;;;;;;5044918;28;20148;-85
2021/10/30 08:18:32;;;;;;;0.50;0.50;;;;;;;;;;5043496;28;20586;-85
2021/10/30 08:20:58;;;;;;;0.22;0.22;;;;;;;;;;5045090;28;20029;-85
2021/10/30 08:23:24;;;;;;;0.47;0.47;;;;;;;;;;5043737;28;20044;-85
2021/10/30 08:25:50;;;;;;;2.25;1.45;;;;;;;;;;5043841;28;20037;-84
2021/10/30 08:28:17;;;;;;;1.15;1.10;;;;;;;;;;5045764;28;20033;-83
2021/10/30 08:30:43;;;;;;;1.95;1.42;;;;;;;;;;5043102;28;20052;-84
2021/10/30 08:33:11;;;;;;;0.38;0.38;;;;;;;;;;5042060;28;20033;-86
2021/10/30 08:35:37;;;;;;;0.65;0.65;;;;;;;;;;5042918;28;20029;-85
2021/10/30 08:38:08;;;;;;;3.20;0.52;;;;;;;;;;5043582;28;20452;-85
2021/10/30 08:40:34;;;;;;;2.83;1.85;;;;;;;;;;5044894;28;20523;-84
2021/10/30 08:43:00;;;;;;;1.70;0.93;;;;;;;;;;5044178;28;20037;-85
2021/10/30 08:45:31;;;;;;;0.93;0.38;;;;;;;;;;5043003;28;20049;-84
2021/10/30 08:47:57;;;;;;;0.90;0.25;;;;;;;;;;5043466;28;20099;-84
2021/10/30 08:50:24;;;;;;;0.45;0.35;;;;;;;;;;5049222;28;20025;-85
2021/10/30 08:52:50;;;;;;;;;;;;;;;;;;5059729;28;20035;-86
2021/10/30 08:55:16;;;;;;;0.47;0.47;;;;;;;;;;5061307;28;19917;-85
2021/10/30 08:57:42;;;;;;;0.20;0.20;;;;;;;;;;5057485;28;20055;-86
2021/10/30 09:00:24;;;;;;;0.23;0.23;;;;;;;;;;5057086;28;20361;-85
2021/10/30 09:03:00;;;;;;;0.75;0.45;;;;;;;;;;5055724;28;20366;-85
2021/10/30 09:05:26;;;;;;;;;;;;;;;;;;5058159;28;20040;-85
2021/10/30 09:07:54;;;;;;;0.13;0.13;;;;;;;;;;5056146;28;19917;-86
2021/10/30 09:10:22;;;;;;;0.30;0.30;;;;;;;;;;5061879;28;20021;-86
2021/10/30 09:12:51;;;;;;;0.15;0.15;;;;;;;;;;5072959;28;20411;-86
2021/10/30 09:15:20;;;;;;;0.10;0.10;;;;;;;;;;5057048;28;20372;-85
2021/10/30 09:17:46;;;;;;;0.65;0.65;;;;;;;;;;5072521;28;20146;-85
2021/10/30 09:20:15;;;;;;;0.57;0.57;;;;;;;;;;5073939;28;20039;-84
2021/10/30 09:22:41;;;;;;;0.20;0.20;;;;;;;;;;5059938;28;20392;-85
2021/10/30 09:25:08;;;;;;;0.40;0.40;;;;;;;;;;5058463;28;20109;-86
2021/10/30 09:27:43;;;;;;;0.40;0.40;;;;;;;;;;5057021;28;20031;-86
2021/10/30 09:30:09;;;;;;;1.33;0.57;;;;;;;;;;5056726;28;20025;-85
2021/10/30 09:32:35;;;;;;;0.82;0.70;;;;;;;;;;5055330;28;20055;-86
2021/10/30 09:35:03;;;;;;;0.20;0.20;;;;;;;;;;5058214;28;20451;-85
2021/10/30 09:37:33;;;;;;;0.20;0.20;;;;;;;;;;5060427;28;20509;-86
2021/10/30 09:40:16;;;;;;;0.38;0.38;;;;;;;;;;5057835;28;20035;-86
2021/10/30 09:42:42;;;;;;;0.10;0.10;;;;;;;;;;5071667;28;20040;-85
2021/10/30 09:45:09;;;;;;;0.30;0.30;;;;;;;;;;5056221;28;20804;-85
2021/10/30 09:47:35;;;;;;;0.38;0.35;;;;;;;;;;5057807;28;20503;-85
2021/10/30 09:50:01;;;;;;;0.47;0.47;;;;;;;;;;5058035;28;20033;-85
2021/10/30 09:52:28;;;;;;;0.00;0.00;;;;;;;;;;5075449;28;20040;-86
2021/10/30 09:54:55;;;;;;;0.10;0.10;;;;;;;;;;5055687;28;20016;-86
2021/10/30 09:57:28;;;;;;;0.10;0.10;;;;;;;;;;5056079;28;20063;-85
2021/10/30 09:59:55;;;;;;;0.05;0.05;;;;;;;;;;5056488;28;20071;-85
2021/10/30 10:02:25;;;;;;;0.30;0.20;;;;;;;;;;5051888;28;20108;-85
2021/10/30 10:04:52;;;;;;;0.20;0.20;;;;;;;;;;5051452;28;20139;-85
2021/10/30 10:07:25;;;;;;;0.55;0.55;;;;;;;;;;5044670;28;20045;-85
2021/10/30 10:09:51;;;;;;;4.85;1.55;;;;;;;;;;5045103;28;20079;-84
2021/10/30 10:12:17;;;;;;;0.22;0.22;;;;;;;;;;5050164;28;20056;-85
2021/10/30 10:14:44;;;;;;;0.30;0.30;;;;;;;;;;5048973;28;20061;-85
2021/10/30 10:17:10;;;;;;;0.13;0.13;;;;;;;;;;5045621;28;20516;-85
2021/10/30 10:19:37;;;;;;;0.77;0.77;;;;;;;;;;5044315;28;20112;-84
2021/10/30 10:22:04;;;;;;;0.20;0.20;;;;;;;;;;5040468;28;20060;-85
2021/10/30 10:24:31;;;;;;;0.35;0.35;;;;;;;;;;5040656;28;20025;-85
2021/10/30 10:27:01;;;;;;;5.90;0.35;;;;;;;;;;5040914;28;20033;-85
2021/10/30 10:29:27;;;;;;;0.47;0.30;;;;;;;;;;5033664;28;20029;-85
2021/10/30 10:31:53;;;;;;;0.43;0.43;;;;;;;;;;5040741;28;20107;-85
2021/10/30 10:34:24;;;;;;;0.25;0.25;;;;;;;;;;5041516;28;20117;-85
2021/10/30 10:37:09;;;;;;;0.32;0.32;;;;;;;;;;5039198;28;20546;-85
2021/10/30 10:39:36;;;;;;;0.15;0.10;;;;;;;;;;5033305;28;20036;-85
2021/10/30 10:42:03;;;;;;;0.30;0.30;;;;;;;;;;5041687;28;20455;-85
2021/10/30 10:44:30;;;;;;;0.35;0.35;;;;;;;;;;5041052;28;20049;-85
2021/10/30 10:46:57;;;;;;;0.03;0.03;;;;;;;;;;5048589;28;20041;-86
2021/10/30 10:52:22;;;;;;;0.20;0.20;;;;;;;;;;5050225;28;20045;-85
2021/10/30 10:55:01;;;;;;;1.48;1.20;;;;;;;;;;5049233;28;20028;-86
2021/10/30 10:57:44;;;;;;;0.22;0.22;;;;;;;;;;5048794;28;20029;-86
2021/10/30 11:00:15;;;;;;;0.28;0.20;;;;;;;;;;5047745;28;20025;-86
2021/10/30 11:02:47;;;;;;;0.00;0.00;;;;;;;;;;5049207;28;20028;-86
2021/10/30 11:05:22;;;;;;;0.70;0.52;;;;;;;;;;5049233;28;20029;-85
2021/10/30 11:07:51;;;;;;;0.45;0.45;;;;;;;;;;5047990;28;20036;-86
2021/10/30 11:10:21;;;;;;;0.30;0.30;;;;;;;;;;5050947;28;20110;-86
2021/10/30 11:13:02;;;;;;;0.85;0.85;;;;;;;;;;5049030;28;20029;-86
2021/10/30 11:15:41;;;;;;;1.60;0.70;;;;;;;;;;5049398;28;20564;-86
2021/10/30 11:18:14;;;;;;;0.00;0.00;;;;;;;;;;5048686;28;20040;-86
2021/10/30 11:20:42;;;;;;;0.93;0.80;;;;;;;;;;5048151;28;20025;-85
2021/10/30 11:23:31;;;;;;;0.45;0.45;;;;;;;;;;5048199;28;20032;-85
2021/10/30 11:26:06;;;;;;;0.95;0.82;;;;;;;;;;5048165;28;20022;-85
2021/10/30 11:28:35;;;;;;;1.40;0.27;;;;;;;;;;5051044;28;20738;-86
2021/10/30 11:31:11;;;;;;;0.30;0.30;;;;;;;;;;5050680;28;20298;-83
2021/10/30 11:33:39;;;;;;;0.15;0.15;;;;;;;;;;5052939;28;20112;-84
2021/10/30 11:36:06;;;;;;;0.00;0.00;;;;;;;;;;5048463;28;20029;-85
2021/10/30 11:38:35;;;;;;;0.20;0.20;;;;;;;;;;5048595;28;20025;-87
2021/10/30 11:41:06;;;;;;;0.17;0.17;;;;;;;;;;5056075;28;20068;-85
2021/10/30 11:43:33;;;;;;;0.25;0.25;;;;;;;;;;5063033;28;20555;-86
2021/10/30 11:46:00;;;;;;;0.20;0.20;;;;;;;;;;5048530;28;20071;-87
2021/10/30 11:48:40;;;;;;;0.38;0.38;;;;;;;;;;5043081;28;20040;-88
2021/10/30 11:51:07;;;;;;;0.05;0.05;;;;;;;;;;5048486;28;20045;-87
2021/10/30 11:53:34;;;;;;;0.20;0.20;;;;;;;;;;5047755;28;20047;-86
2021/10/30 11:56:01;;;;;;;0.17;0.15;;;;;;;;;;5049660;28;20044;-88
2021/10/30 11:58:33;;;;;;;0.00;0.00;;;;;;;;;;5049978;28;20037;-87
2021/10/30 12:00:59;;;;;;;0.35;0.25;;;;;;;;;;5048061;28;20024;-85
2021/10/30 12:03:33;;;;;;;0.38;0.20;;;;;;;;;;5047222;28;20488;-87
2021/10/30 12:05:59;;;;;;;0.30;0.30;;;;;;;;;;5047101;28;20058;-86
2021/10/30 12:08:26;;;;;;;0.00;0.00;;;;;;;;;;5062723;28;20036;-88
2021/10/30 12:10:52;;;;;;;0.00;0.00;;;;;;;;;;5047135;28;20085;-89
2021/10/30 12:13:18;;;;;;;0.10;0.10;;;;;;;;;;5048111;28;20088;-86
2021/10/30 12:15:46;;;;;;;0.45;0.20;;;;;;;;;;5047352;28;20029;-84
2021/10/30 12:18:13;;;;;;;0.00;0.00;;;;;;;;;;5047283;28;20029;-80
2021/10/30 12:20:39;;;;;;;0.25;0.25;;;;;;;;;;5047172;28;20051;-82
2021/10/30 12:23:07;;;;;;;0.00;0.00;;;;;;;;;;5045913;28;20033;-86
2021/10/30 12:25:34;;;;;;;0.05;0.05;;;;;;;;;;5063908;28;20108;-86
2021/10/30 12:28:00;;;;;;;0.05;0.05;;;;;;;;;;5047988;28;20032;-91
2021/10/30 12:30:28;;;;;;;0.05;0.05;;;;;;;;;;5045683;28;20021;-84
2021/10/30 12:32:54;;;;;;;0.00;0.00;;;;;;;;;;5045447;28;20037;-86
2021/10/30 12:35:24;;;;;;;0.00;0.00;;;;;;;;;;5042790;28;20028;-86
2021/10/30 12:37:51;;;;;;;0.10;0.10;;;;;;;;;;5045857;28;20029;-87
2021/10/30 12:40:21;;;;;;;0.10;0.10;;;;;;;;;;5046614;28;20482;-87
2021/10/30 12:43:01;;;;;;;0.10;0.10;;;;;;;;;;5046274;28;20036;-87
2021/10/30 12:45:41;;;;;;;0.15;0.15;;;;;;;;;;5045843;28;20523;-87
2021/10/30 12:48:15;;;;;;;0.10;0.10;;;;;;;;;;5046552;28;20103;-87
2021/10/30 12:50:41;;;;;;;0.22;0.17;;;;;;;;;;5045965;28;20733;-87
2021/10/30 12:53:22;;;;;;;0.00;0.00;;;;;;;;;;5045803;28;20049;-87
2021/10/30 12:56:09;;;;;;;0.22;0.22;;;;;;;;;;5046403;28;20028;-87
2021/10/30 12:58:41;;;;;;;0.45;0.20;;;;;;;;;;5045700;28;20044;-84
2021/10/30 13:01:16;;;;;;;0.00;0.00;;;;;;;;;;5062071;28;20029;-86
2021/10/30 13:03:43;;;;;;;0.30;0.17;;;;;;;;;;5045713;28;20074;-84
2021/10/30 13:06:11;;;;;;;;;;;;;;;;;;5026755;28;20111;-83
2021/10/30 13:08:57;;;;;;;0.10;0.10;;;;;;;;;;5046979;28;19987;-85
2021/10/30 13:11:23;;;;;;;0.10;0.10;;;;;;;;;;5046199;28;20033;-88
2021/10/30 13:13:50;;;;;;;0.00;0.00;;;;;;;;;;5046082;28;20107;-89
2021/10/30 13:16:16;;;;;;;0.00;0.00;;;;;;;;;;5046985;28;20044;-88
2021/10/30 13:18:43;;;;;;;0.00;0.00;;;;;;;;;;5045189;28;20086;-93
2021/10/30 13:21:19;;;;;;;1.83;0.20;;;;;;;;;;5047017;28;20104;-93
2021/10/30 13:23:49;;;;;;;0.00;0.00;;;;;;;;;;5046721;28;20523;-89
2021/10/30 13:26:15;;;;;;;0.00;0.00;;;;;;;;;;5040955;28;20096;-88
2021/10/30 13:28:42;;;;;;;0.10;0.10;;;;;;;;;;5042103;28;20037;-90
2021/10/30 13:31:08;;;;;;;0.00;0.00;;;;;;;;;;5037776;28;20651;-91
2021/10/30 13:33:34;;;;;;;0.00;0.00;;;;;;;;;;5042948;28;20107;-90
2021/10/30 13:36:00;;;;;;;0.05;0.05;;;;;;;;;;5044387;28;20033;-88
2021/10/30 13:38:26;;;;;;;0.20;0.20;;;;;;;;;;5044025;28;20124;-89
2021/10/30 13:40:52;;;;;;;0.00;0.00;;;;;;;;;;5042175;28;20120;-90
2021/10/30 13:43:18;;;;;;;0.05;0.05;;;;;;;;;;5043851;28;20024;-90
2021/10/30 13:45:44;;;;;;;0.00;0.00;;;;;;;;;;5044992;28;20045;-90
2021/10/30 13:48:10;;;;;;;0.00;0.00;;;;;;;;;;5044003;28;20033;-89
2021/10/30 13:50:37;;;;;;;0.00;0.00;;;;;;;;;;5038150;28;20875;-89
2021/10/30 13:53:03;;;;;;;;;;;;;;;;;;5044789;28;20037;-89
2021/10/30 13:55:29;;;;;;;0.00;0.00;;;;;;;;;;5045040;28;19912;-89
2021/10/30 13:57:55;;;;;;;0.47;0.32;;;;;;;;;;5046012;28;20723;-90
2021/10/30 14:00:21;;;;;;;0.30;0.20;;;;;;;;;;5042365;28;20036;-90
2021/10/30 14:02:47;;;;;;;0.10;0.10;;;;;;;;;;5042014;28;20044;-91
2021/10/30 14:05:13;;;;;;;0.10;0.10;;;;;;;;;;5045734;28;20477;-90
2021/10/30 14:07:39;;;;;;;0.45;0.15;;;;;;;;;;5046633;28;20037;-91
2021/10/30 14:10:06;;;;;;;2.70;0.43;;;;;;;;;;5058927;28;20040;-89
2021/10/30 14:12:32;;;;;;;0.20;0.20;;;;;;;;;;5044107;28;20041;-89
2021/10/30 14:14:58;;;;;;;0.00;0.00;;;;;;;;;;5043801;28;20037;-90
2021/10/30 14:17:24;;;;;;;0.43;0.43;;;;;;;;;;5041819;28;20112;-90
2021/10/30 14:19:50;;;;;;;0.00;0.00;;;;;;;;;;5046267;28;20124;-90
2021/10/30 14:22:16;;;;;;;0.20;0.20;;;;;;;;;;5048689;28;20128;-90
2021/10/30 14:24:42;;;;;;;0.17;0.03;;;;;;;;;;5048254;28;20476;-90
2021/10/30 14:27:08;;;;;;;0.08;0.08;;;;;;;;;;5048027;28;20044;-89
2021/10/30 14:29:34;;;;;;;0.20;0.20;;;;;;;;;;5050328;28;20104;-91
2021/10/30 14:32:02;;;;;;;0.10;0.10;;;;;;;;;;5045584;28;20497;-90
2021/10/30 14:34:29;;;;;;;0.00;0.00;;;;;;;;;;5048875;28;20029;-90
2021/10/30 14:36:55;;;;;;;0.20;0.20;;;;;;;;;;5033707;28;20112;-91
2021/10/30 14:39:21;;;;;;;2.05;0.38;;;;;;;;;;5049136;28;20032;-90
2021/10/30 14:41:47;;;;;;;0.10;0.10;;;;;;;;;;5052455;28;20037;-89
2021/10/30 14:44:15;;;;;;;0.28;0.28;;;;;;;;;;5047777;28;20029;-90
2021/10/30 14:46:42;;;;;;;0.00;0.00;;;;;;;;;;5049317;28;20495;-89
2021/10/30 14:49:08;;;;;;;0.05;0.05;;;;;;;;;;5046234;28;20067;-90